createdAt,value
2023-11-06T00:02:17.322Z,19.6
2023-11-06T00:08:08.868Z,19.6
2023-11-06T00:14:01.119Z,19.6
2023-11-06T00:20:03.986Z,19.6
2023-11-06T00:25:55.105Z,19.6
2023-11-06T00:31:46.258Z,19.6
2023-11-06T00:37:41.111Z,19.6
2023-11-06T00:43:33.349Z,19.6
2023-11-06T00:49:25.600Z,19.6
2023-11-06T00:55:17.213Z,19.6
2023-11-06T01:00:53.440Z,19.6
2023-11-06T01:06:30.224Z,19.6
2023-11-06T01:12:07.014Z,19.6
2023-11-06T01:17:27.869Z,19.5
2023-11-06T01:23:14.293Z,19.6
2023-11-06T01:29:05.418Z,19.5
2023-11-06T01:34:42.327Z,19.6
2023-11-06T01:40:18.260Z,19.5
2023-11-06T01:46:10.429Z,19.4
2023-11-06T01:52:02.318Z,19.5
2023-11-06T01:57:38.026Z,19.4
2023-11-06T02:03:30.512Z,19.5
2023-11-06T02:09:07.159Z,19.5
2023-11-06T02:14:59.409Z,19.5
2023-11-06T02:20:51.982Z,19.5
2023-11-06T02:26:54.521Z,19.4
2023-11-06T02:32:46.562Z,19.4
2023-11-06T02:38:39.781Z,19.5
2023-11-06T02:44:32.363Z,19.5
2023-11-06T02:50:26.390Z,19.4
2023-11-06T02:56:18.349Z,19.4
2023-11-06T03:02:09.473Z,19.5
2023-11-06T03:08:03.000Z,19.4
2023-11-06T03:13:54.979Z,19.4
2023-11-06T03:19:47.162Z,19.4
2023-11-06T03:25:38.988Z,19.4
2023-11-06T03:31:30.859Z,19.4
2023-11-06T03:37:23.352Z,19.4
2023-11-06T03:43:15.855Z,19.4
2023-11-06T03:49:12.854Z,19.4
2023-11-06T03:55:04.053Z,19.4
2023-11-06T04:00:40.514Z,19.4
2023-11-06T04:06:33.161Z,19.4
2023-11-06T04:12:27.683Z,19.4
2023-11-06T04:18:20.952Z,19.4
2023-11-06T04:24:13.589Z,19.4
2023-11-06T04:30:05.318Z,19.4
2023-11-06T04:35:42.305Z,19.4
2023-11-06T04:41:35.947Z,19.4
2023-11-06T04:47:27.871Z,19.4
2023-11-06T04:53:19.997Z,19.4
2023-11-06T04:59:11.905Z,19.4
2023-11-06T05:04:52.251Z,19.4
2023-11-06T05:10:44.633Z,19.4
2023-11-06T05:16:35.821Z,19.4
2023-11-06T05:22:15.118Z,19.4
2023-11-06T05:28:08.886Z,19.5
2023-11-06T05:33:46.094Z,19.4
2023-11-06T05:39:23.098Z,19.4
2023-11-06T05:44:59.266Z,19.5
2023-11-06T05:50:51.658Z,19.5
2023-11-06T05:56:29.718Z,19.4
2023-11-06T06:02:10.031Z,19.4
2023-11-06T06:07:47.554Z,19.4
2023-11-06T06:13:26.294Z,19.4
2023-11-06T06:19:03.304Z,19.3
2023-11-06T06:24:40.125Z,19.4
2023-11-06T06:30:18.415Z,19.4
2023-11-06T06:35:40.129Z,19.4
2023-11-06T06:41:16.895Z,19.6
2023-11-06T06:46:37.337Z,19.7
2023-11-06T06:52:14.464Z,19.7
2023-11-06T06:57:51.462Z,19.7
2023-11-06T07:03:27.846Z,19.6
2023-11-06T07:09:05.874Z,19.6
2023-11-06T07:14:42.663Z,19.6
2023-11-06T07:20:19.602Z,19.6
2023-11-06T07:25:41.666Z,19.5
2023-11-06T07:31:18.644Z,19.4
2023-11-06T07:37:11.414Z,19.4
2023-11-06T07:43:03.493Z,19.4
2023-11-06T07:48:25.578Z,19.4
2023-11-06T07:54:02.142Z,19.5
2023-11-06T07:59:41.834Z,19.4
2023-11-06T08:05:45.690Z,19.6
2023-11-06T08:11:39.715Z,19.5
2023-11-06T08:17:02.239Z,19.6
2023-11-06T08:22:40.338Z,19.6
2023-11-06T08:28:32.086Z,19.6
2023-11-06T08:34:26.435Z,19.6
2023-11-06T08:40:18.976Z,19.6
2023-11-06T08:45:55.391Z,19.6
2023-11-06T08:51:38.481Z,19.6
2023-11-06T08:57:30.124Z,19.6
2023-11-06T09:03:23.851Z,19.6
2023-11-06T09:09:16.954Z,19.7
2023-11-06T09:14:54.420Z,19.7
2023-11-06T09:20:47.004Z,19.7
2023-11-06T09:26:41.827Z,19.7
2023-11-06T09:32:35.220Z,19.7
2023-11-06T09:38:28.741Z,19.8
2023-11-06T09:44:20.621Z,19.7
2023-11-06T09:50:00.392Z,19.7
2023-11-06T09:55:41.460Z,19.7
2023-11-06T10:01:18.625Z,19.8
2023-11-06T10:07:11.465Z,19.7
2023-11-06T10:13:07.292Z,19.8
2023-11-06T10:18:46.921Z,19.8
2023-11-06T10:24:39.960Z,19.8
2023-11-06T10:30:20.448Z,19.8
2023-11-06T10:36:01.157Z,19.8
2023-11-06T10:41:54.027Z,19.8
2023-11-06T10:48:05.720Z,19.8
2023-11-06T10:53:59.388Z,19.8
2023-11-06T11:00:03.835Z,19.8
2023-11-06T11:05:58.892Z,19.8
2023-11-06T11:11:53.132Z,19.8
2023-11-06T11:17:48.803Z,19.8
2023-11-06T11:23:43.260Z,19.8
2023-11-06T11:29:37.231Z,19.8
2023-11-06T11:35:34.682Z,19.8
2023-11-06T11:41:29.746Z,19.8
2023-11-06T11:47:21.257Z,19.8
2023-11-06T11:53:13.980Z,19.8
2023-11-06T11:58:50.838Z,19.8
2023-11-06T12:04:44.040Z,19.8
2023-11-06T12:10:42.837Z,19.8
2023-11-06T12:16:34.413Z,19.8
2023-11-06T12:22:35.617Z,19.8
2023-11-06T12:28:13.065Z,19.8
2023-11-06T12:34:08.403Z,19.8
2023-11-06T12:40:00.929Z,19.8
2023-11-06T12:45:53.882Z,19.8
2023-11-06T12:52:01.901Z,19.8
2023-11-06T12:57:53.140Z,19.9
2023-11-06T13:03:47.324Z,19.9
2023-11-06T13:09:40.405Z,19.9
2023-11-06T13:15:26.540Z,19.9
2023-11-06T13:21:04.005Z,19.9
2023-11-06T13:26:55.540Z,19.9
2023-11-06T13:32:49.999Z,19.9
2023-11-06T13:38:42.662Z,19.9
2023-11-06T13:44:34.455Z,19.9
2023-11-06T13:50:26.592Z,19.9
2023-11-06T13:56:33.499Z,19.9
2023-11-06T14:02:13.311Z,20
2023-11-06T14:08:05.960Z,20
2023-11-06T14:13:57.659Z,19.9
2023-11-06T14:19:34.243Z,20
2023-11-06T14:25:25.776Z,19.9
2023-11-06T14:31:17.395Z,19.9
2023-11-06T14:37:10.648Z,19.9
2023-11-06T14:43:02.535Z,20
2023-11-06T14:49:05.137Z,19.9
2023-11-06T14:55:13.549Z,20
2023-11-06T15:01:05.848Z,19.9
2023-11-06T15:06:59.649Z,20
2023-11-06T15:12:51.747Z,19.9
2023-11-06T15:18:44.698Z,19.9
2023-11-06T15:24:41.457Z,19.9
2023-11-06T15:30:34.242Z,19.9
2023-11-06T15:36:27.900Z,19.9
2023-11-06T15:42:24.400Z,19.9
2023-11-06T15:48:27.000Z,19.9
2023-11-06T15:54:19.717Z,19.9
2023-11-06T15:59:56.930Z,19.9
2023-11-06T16:05:36.330Z,19.9
2023-11-06T16:11:28.844Z,20
2023-11-06T16:17:20.972Z,19.9
2023-11-06T16:23:16.759Z,19.9
2023-11-06T16:28:53.312Z,20
2023-11-06T16:34:59.421Z,19.9
2023-11-06T16:40:52.550Z,19.9
2023-11-06T16:46:44.801Z,20
2023-11-06T16:52:37.927Z,20
2023-11-06T16:58:30.053Z,20
2023-11-06T17:04:23.100Z,19.9
2023-11-06T17:10:19.635Z,19.9
2023-11-06T17:16:14.075Z,20
2023-11-06T17:22:09.320Z,20
2023-11-06T17:28:05.191Z,19.9
2023-11-06T17:33:58.217Z,19.9
2023-11-06T17:39:51.161Z,19.9
2023-11-06T17:45:48.362Z,19.9
2023-11-06T17:51:41.062Z,19.9
2023-11-06T17:57:33.475Z,19.9
2023-11-06T18:03:28.444Z,19.9
2023-11-06T18:09:05.705Z,19.9
2023-11-06T18:14:56.900Z,19.9
2023-11-06T18:20:49.979Z,19.9
2023-11-06T18:26:42.225Z,19.9
2023-11-06T18:32:33.374Z,19.9
2023-11-06T18:38:10.921Z,19.9
2023-11-06T18:43:47.373Z,19.9
2023-11-06T18:49:39.779Z,19.9
2023-11-06T18:55:32.099Z,19.9
2023-11-06T19:01:24.380Z,19.9
2023-11-06T19:07:24.480Z,19.9
2023-11-06T19:13:17.296Z,19.9
2023-11-06T19:19:09.927Z,19.9
2023-11-06T19:25:01.707Z,20
2023-11-06T19:30:57.325Z,19.9
2023-11-06T19:36:50.034Z,20
2023-11-06T19:42:42.132Z,19.9
2023-11-06T19:48:37.275Z,19.9
2023-11-06T19:54:29.992Z,19.9
2023-11-06T20:00:57.344Z,20
2023-11-06T20:06:50.709Z,20
2023-11-06T20:12:42.277Z,20
2023-11-06T20:18:35.846Z,19.9
2023-11-06T20:24:28.246Z,20
2023-11-06T20:30:06.797Z,19.9
2023-11-06T20:35:44.887Z,20
2023-11-06T20:41:21.342Z,19.9
2023-11-06T20:47:00.138Z,19.9
2023-11-06T20:52:53.259Z,19.9
2023-11-06T20:58:45.501Z,19.9
2023-11-06T21:04:22.972Z,19.9
2023-11-06T21:10:15.575Z,19.8
2023-11-06T21:16:07.235Z,19.8
2023-11-06T21:21:59.516Z,19.8
2023-11-06T21:27:51.987Z,19.8
2023-11-06T21:33:47.980Z,19.8
2023-11-06T21:39:25.496Z,19.8
2023-11-06T21:45:02.545Z,19.8
2023-11-06T21:50:55.351Z,19.8
2023-11-06T21:57:01.017Z,19.8
2023-11-06T22:02:53.936Z,19.8
2023-11-06T22:08:40.521Z,19.8
2023-11-06T22:14:24.041Z,19.8
2023-11-06T22:19:49.166Z,19.8
2023-11-06T22:25:09.792Z,19.8
2023-11-06T22:31:01.505Z,19.8
2023-11-06T22:36:55.008Z,19.8
2023-11-06T22:42:32.809Z,19.8
2023-11-06T22:48:25.863Z,19.8
2023-11-06T22:54:03.105Z,19.8
2023-11-06T22:59:39.421Z,19.8
2023-11-06T23:05:16.830Z,19.7
2023-11-06T23:11:09.353Z,19.8
2023-11-06T23:17:00.853Z,19.7
2023-11-06T23:22:53.729Z,19.8
2023-11-06T23:28:50.068Z,19.8
2023-11-06T23:34:43.169Z,19.7
2023-11-06T23:40:34.851Z,19.7
2023-11-06T23:46:38.331Z,19.7
2023-11-06T23:52:31.356Z,19.7
2023-11-06T23:58:23.065Z,19.7
